Time;durP1;ratioP1;P1;durP2;ratioP2;P2;SDS_P1;SDS_P2;PMS_P1;PMS_P2;Temp;Humidity;BMP_temperature;BMP_pressure;BME280_temperature;BME280_humidity;BME280_pressure;Samples;Min_cycle;Max_cycle;Signal;HPM_P1;HPM_P2
2023/02/06 07:31:34;;;;;;;;;6.50;4.00;;;;;17.39;48.07;103688.50;5076863;27;45910;-75
2023/02/06 07:34:01;;;;;;;;;4.25;3.00;;;;;17.52;48.04;103689.81;5069515;27;45511;-71
2023/02/06 07:36:26;;;;;;;;;4.50;2.75;;;;;17.74;47.57;103693.50;5067926;27;46606;-73
2023/02/06 07:38:51;;;;;;;;;3.00;3.00;;;;;18.00;47.32;103694.31;5069392;28;45561;-73
2023/02/06 07:41:17;;;;;;;;;5.25;4.00;;;;;18.27;47.12;103705.81;5064925;27;48294;-73
2023/02/06 07:43:43;;;;;;;;;3.50;2.00;;;;;18.59;46.64;103713.50;5064590;27;45510;-73
2023/02/06 07:46:09;;;;;;;;;2.00;2.00;;;;;18.91;46.03;103716.69;5069393;27;45373;-76
2023/02/06 07:48:34;;;;;;;;;7.00;4.00;;;;;19.19;46.34;103707.44;5070758;27;45706;-74
2023/02/06 07:51:07;;;;;;;;;2.33;1.00;;;;;19.57;45.62;103714.75;5066387;28;47409;-75
2023/02/06 07:53:34;;;;;;;;;1.33;1.33;;;;;19.92;45.47;103713.19;5066849;28;45544;-73
2023/02/06 07:56:00;;;;;;;;;3.00;2.00;;;;;20.19;45.53;103702.94;5068968;27;45534;-77
2023/02/06 07:58:25;;;;;;;;;3.00;3.00;;;;;20.57;45.38;103720.91;5070630;28;45504;-73
2023/02/06 08:00:51;;;;;;;;;3.00;3.00;;;;;20.82;45.38;103716.06;5065634;27;47457;-75
2023/02/06 08:03:16;;;;;;;;;4.33;3.00;;;;;21.04;44.20;103708.66;5062767;28;45531;-75
2023/02/06 08:05:42;;;;;;;;;3.00;2.00;;;;;21.30;44.01;103710.94;5069961;27;46491;-75
2023/02/06 08:08:09;;;;;;;;;3.67;2.00;;;;;21.44;44.24;103707.50;5068384;27;45558;-75
2023/02/06 08:10:37;;;;;;;;;7.00;2.67;;;;;21.66;43.79;103701.78;5068124;27;45505;-76
2023/02/06 08:13:02;;;;;;;;;3.33;2.67;;;;;21.74;43.20;103696.00;5078174;27;45375;-75
2023/02/06 08:15:27;;;;;;;;;5.00;4.00;;;;;21.89;42.70;103694.28;5075682;27;45521;-73
2023/02/06 08:17:53;;;;;;;;;7.00;3.00;;;;;22.01;42.45;103695.41;5066320;27;45514;-78
2023/02/06 08:20:18;;;;;;;;;5.00;3.00;;;;;22.11;41.85;103698.44;5067444;27;46006;-76
2023/02/06 08:22:43;;;;;;;;;8.00;2.00;;;;;22.20;42.19;103688.97;5067577;27;45497;-76
2023/02/06 08:25:09;;;;;;;;;4.33;4.00;;;;;22.27;42.02;103679.50;5064009;27;45529;-74
2023/02/06 08:27:34;;;;;;;;;4.00;3.67;;;;;22.35;41.85;103668.25;5069493;28;45362;-75
2023/02/06 08:29:59;;;;;;;;;5.33;2.00;;;;;22.46;42.06;103681.16;5076678;27;46275;-74
2023/02/06 08:32:25;;;;;;;;;8.00;5.33;;;;;22.54;41.78;103673.50;5088929;27;45439;-73
2023/02/06 08:34:51;;;;;;;;;5.00;4.00;;;;;22.64;41.77;103674.69;5090421;27;45527;-76
2023/02/06 08:37:16;;;;;;;;;4.00;4.00;;;;;22.77;41.46;103671.25;5079842;27;45655;-76
2023/02/06 08:39:42;;;;;;;;;5.00;2.00;;;;;22.88;41.76;103674.16;5090192;27;46270;-75
2023/02/06 08:42:07;;;;;;;;;6.33;3.67;;;;;23.00;41.23;103669.84;5073379;27;45925;-72
2023/02/06 08:44:32;;;;;;;;;7.00;3.00;;;;;23.08;41.07;103669.38;5066755;27;45494;-74
2023/02/06 08:46:58;;;;;;;;;3.00;3.00;;;;;23.13;40.76;103659.09;5071185;28;45550;-76
2023/02/06 08:49:25;;;;;;;;;8.33;4.33;;;;;23.22;40.66;103654.94;5070700;27;45647;-79
2023/02/06 08:51:51;;;;;;;;;5.00;3.00;;;;;23.28;40.38;103649.16;5068222;27;45512;-77
2023/02/06 08:54:20;;;;;;;;;6.00;4.00;;;;;23.35;40.36;103646.97;5063376;27;46148;-80
2023/02/06 08:56:46;;;;;;;;;5.00;2.33;;;;;23.41;40.60;103645.69;5071541;27;45768;-76
2023/02/06 08:59:13;;;;;;;;;3.33;3.00;;;;;23.48;40.47;103647.06;5076351;27;46266;-78
2023/02/06 09:01:39;;;;;;;;;5.00;2.67;;;;;23.53;40.34;103649.47;5073851;27;45446;-76
2023/02/06 09:04:08;;;;;;;;;5.00;3.00;;;;;23.58;40.05;103649.19;5057153;28;45591;-77
2023/02/06 09:06:35;;;;;;;;;2.67;1.00;;;;;23.62;40.23;103653.44;5070085;27;47218;-76
2023/02/06 09:09:01;;;;;;;;;2.00;2.00;;;;;23.66;40.07;103657.66;5072751;27;45597;-78
2023/02/06 09:11:26;;;;;;;;;2.00;2.00;;;;;23.71;40.09;103660.09;5069268;28;46046;-80
2023/02/06 09:13:57;;;;;;;;;2.00;2.00;;;;;23.74;40.25;103649.06;5076347;27;45553;-80
2023/02/06 09:16:24;;;;;;;;;1.33;1.33;;;;;23.79;39.78;103658.63;5054036;27;45564;-80
2023/02/06 09:18:52;;;;;;;;;3.67;1.33;;;;;23.82;38.98;103647.59;5066870;28;45688;-74
2023/02/06 09:21:21;;;;;;;;;2.00;2.00;;;;;23.80;38.44;103646.78;5077570;27;45523;-74
2023/02/06 09:23:57;;;;;;;;;2.33;2.33;;;;;23.79;38.09;103668.63;5073984;27;45582;-74
2023/02/06 09:26:28;;;;;;;;;2.00;2.00;;;;;23.73;37.85;103667.16;5075057;27;45395;-74
2023/02/06 09:28:55;;;;;;;;;2.00;2.00;;;;;23.65;38.05;103664.94;5076472;28;46484;-76
2023/02/06 09:31:20;;;;;;;;;5.33;3.00;;;;;23.62;38.19;103657.00;5075186;27;45593;-75
2023/02/06 09:33:46;;;;;;;;;5.00;3.00;;;;;23.63;38.10;103653.31;5075390;28;49108;-74
2023/02/06 09:36:14;;;;;;;;;4.00;3.67;;;;;23.68;38.37;103653.03;5068629;27;45502;-74
2023/02/06 09:38:46;;;;;;;;;4.67;3.00;;;;;23.74;38.19;103657.19;5067040;28;45367;-74
2023/02/06 09:41:23;;;;;;;;;2.00;2.00;;;;;23.81;38.37;103654.00;5074564;27;45395;-73
2023/02/06 09:43:51;;;;;;;;;5.67;3.33;;;;;23.87;38.42;103649.97;5072682;27;45262;-74
2023/02/06 09:46:22;;;;;;;;;4.67;2.00;;;;;23.93;38.54;103646.88;5068460;27;45489;-74
2023/02/06 09:48:49;;;;;;;;;4.00;3.00;;;;;23.99;38.43;103647.44;5063609;27;46217;-89
2023/02/06 09:51:25;;;;;;;;;3.00;2.00;;;;;24.01;38.56;103640.94;5056749;28;45458;-81
2023/02/06 09:54:07;;;;;;;;;2.33;2.33;;;;;24.05;38.68;103647.03;5092742;27;45429;-77
2023/02/06 09:57:01;;;;;;;;;5.00;3.00;;;;;24.09;38.62;103643.19;5069597;28;45356;-74
2023/02/06 09:59:48;;;;;;;;;4.00;2.33;;;;;24.17;38.86;103654.41;5074941;28;45459;-74
2023/02/06 10:02:13;;;;;;;;;5.00;3.33;;;;;24.26;38.51;103646.59;5064143;27;45539;-74
2023/02/06 10:04:57;;;;;;;;;4.00;4.00;;;;;24.31;38.82;103653.47;5067691;27;45518;-76
2023/02/06 10:07:51;;;;;;;;;3.67;3.67;;;;;24.44;38.52;103649.94;5075918;28;45647;-75
2023/02/06 10:10:26;;;;;;;;;3.00;3.00;;;;;24.52;38.55;103655.69;5069813;27;46443;-75
2023/02/06 10:13:38;;;;;;;;;4.00;4.00;;;;;24.64;38.41;103661.28;5055387;28;45353;-77
2023/02/06 10:16:07;;;;;;;;;4.33;3.33;;;;;24.70;38.54;103663.56;5062301;27;45482;-82
2023/02/06 10:18:44;;;;;;;;;4.67;3.33;;;;;24.71;38.06;103668.00;5072293;28;45541;-81
2023/02/06 10:21:23;;;;;;;;;2.00;2.00;;;;;24.67;37.91;103667.34;5060265;28;46366;-80
2023/02/06 10:24:12;;;;;;;;;2.33;2.33;;;;;24.67;37.60;103667.34;5054998;28;45492;-81
2023/02/06 10:26:39;;;;;;;;;3.00;3.00;;;;;24.65;37.53;103668.44;5057494;28;45516;-79
2023/02/06 10:29:11;;;;;;;;;1.00;1.00;;;;;24.63;37.55;103662.22;5069635;27;45468;-74
2023/02/06 10:32:01;;;;;;;;;4.00;3.00;;;;;24.64;37.67;103656.69;5058378;27;46677;-74
2023/02/06 10:34:51;;;;;;;;;4.00;4.00;;;;;24.66;37.96;103653.88;5067776;28;45586;-73
2023/02/06 10:37:46;;;;;;;;;4.67;3.00;;;;;24.71;37.79;103651.72;5042054;28;45364;-74
2023/02/06 10:40:17;;;;;;;;;2.33;2.33;;;;;24.78;38.07;103650.31;5055026;27;45801;-74
2023/02/06 10:43:01;;;;;;;;;3.00;3.00;;;;;24.86;37.82;103650.66;5063450;27;46405;-74
2023/02/06 10:45:33;;;;;;;;;3.67;3.67;;;;;24.92;37.95;103646.66;5059029;28;45907;-76
2023/02/06 10:48:11;;;;;;;;;2.33;2.33;;;;;24.98;37.73;103635.34;5062901;28;45525;-76
2023/02/06 10:50:44;;;;;;;;;2.33;2.33;;;;;25.07;37.73;103641.13;5068376;28;45454;-77
2023/02/06 10:53:24;;;;;;;;;5.67;4.00;;;;;25.10;37.64;103635.47;5074431;27;47056;-76
2023/02/06 10:56:04;;;;;;;;;2.67;2.67;;;;;25.11;37.36;103640.81;5074734;27;45577;-80
2023/02/06 10:59:00;;;;;;;;;3.00;1.33;;;;;25.09;37.03;103636.47;5065906;27;45795;-79
2023/02/06 11:01:30;;;;;;;;;2.33;2.00;;;;;25.08;37.57;103630.16;5074313;28;45747;-81
2023/02/06 11:04:04;;;;;;;;;5.33;1.33;;;;;25.08;37.38;103631.97;5072222;27;46294;-78
2023/02/06 11:06:30;;;;;;;;;4.33;2.33;;;;;25.07;37.05;103647.44;5075083;27;45558;-77
2023/02/06 11:08:56;;;;;;;;;4.33;4.33;;;;;25.06;37.50;103634.81;5070140;28;46163;-80
2023/02/06 11:11:30;;;;;;;;;4.00;3.00;;;;;25.09;37.59;103631.88;5055990;28;45472;-80
2023/02/06 11:14:14;;;;;;;;;3.00;3.00;;;;;25.15;37.47;103618.81;5059587;27;45505;-74
2023/02/06 11:16:41;;;;;;;;;1.00;1.00;;;;;25.19;37.16;103623.06;5073632;28;45403;-74
2023/02/06 11:19:23;;;;;;;;;5.00;2.00;;;;;25.24;37.18;103621.75;5059344;27;45493;-75
2023/02/06 11:21:49;;;;;;;;;4.00;3.67;;;;;25.28;36.78;103619.69;5063528;28;45476;-79
2023/02/06 11:24:17;;;;;;;;;5.67;3.33;;;;;25.34;35.77;103626.53;5053852;28;46595;-77
2023/02/06 11:26:47;;;;;;;;;6.00;4.00;;;;;25.27;35.09;103613.38;5076741;27;45535;-77
2023/02/06 11:29:23;;;;;;;;;6.00;5.00;;;;;25.18;34.65;103621.34;5068007;27;45490;-78
2023/02/06 11:31:53;;;;;;;;;5.33;5.00;;;;;25.05;34.21;103614.03;5066748;27;45493;-78
2023/02/06 11:34:22;;;;;;;;;8.33;5.00;;;;;24.92;34.51;103616.78;5057880;27;45537;-79
2023/02/06 11:36:51;;;;;;;;;5.00;4.67;;;;;24.80;34.38;103610.31;5074017;28;45399;-79
2023/02/06 11:39:25;;;;;;;;;5.00;3.00;;;;;24.66;34.39;103603.16;5074061;28;45296;-79
2023/02/06 11:41:57;;;;;;;;;5.33;4.00;;;;;24.56;34.72;103607.50;5065361;27;45578;-78
2023/02/06 11:44:24;;;;;;;;;7.00;5.00;;;;;24.45;34.49;103592.78;5074229;28;45439;-79
2023/02/06 11:46:50;;;;;;;;;5.67;5.67;;;;;24.37;34.42;103602.44;5074373;27;45513;-79
2023/02/06 11:49:18;;;;;;;;;3.33;3.33;;;;;24.29;34.83;103595.72;5048047;28;45485;-78
2023/02/06 11:51:46;;;;;;;;;3.33;3.33;;;;;24.25;34.72;103588.75;5054181;28;45838;-77
2023/02/06 11:54:27;;;;;;;;;5.00;5.00;;;;;24.19;34.92;103586.44;5056878;27;45547;-79
2023/02/06 11:57:02;;;;;;;;;5.33;4.00;;;;;24.18;35.08;103587.41;5074554;28;45388;-79
2023/02/06 11:59:29;;;;;;;;;7.67;4.00;;;;;24.14;35.08;103581.34;5049905;28;45478;-79
2023/02/06 12:01:56;;;;;;;;;4.00;4.00;;;;;24.11;34.74;103576.09;5073490;27;45443;-79
2023/02/06 12:04:37;;;;;;;;;1.00;1.00;;;;;24.11;34.97;103572.53;5069524;27;46021;-79
2023/02/06 12:07:15;;;;;;;;;8.00;6.33;;;;;24.10;34.71;103566.22;5053603;28;45314;-80
2023/02/06 12:09:40;;;;;;;;;3.00;3.00;;;;;24.08;35.03;103566.28;5057213;28;45342;-77
2023/02/06 12:12:20;;;;;;;;;6.00;4.00;;;;;24.08;34.83;103560.88;5074130;28;45598;-77
2023/02/06 12:14:51;;;;;;;;;5.00;4.00;;;;;24.08;34.75;103544.59;5073757;28;45419;-77
2023/02/06 12:17:31;;;;;;;;;3.33;3.33;;;;;24.08;34.72;103546.47;5072070;27;45888;-77
2023/02/06 12:20:03;;;;;;;;;4.00;4.00;;;;;24.05;34.46;103546.66;5076236;28;45458;-85
2023/02/06 12:22:38;;;;;;;;;4.00;3.00;;;;;24.02;34.70;103536.88;5072551;27;45661;-79
2023/02/06 12:25:04;;;;;;;;;5.00;4.00;;;;;24.01;35.07;103539.69;5049873;27;48100;-78
2023/02/06 12:27:36;;;;;;;;;5.00;4.00;;;;;24.03;34.79;103532.34;5065763;27;45532;-81
2023/02/06 12:30:07;;;;;;;;;6.00;4.00;;;;;24.05;34.90;103543.94;5069041;28;45581;-82
2023/02/06 12:32:45;;;;;;;;;4.00;4.00;;;;;24.07;34.86;103547.41;5066301;28;45357;-82
2023/02/06 12:35:30;;;;;;;;;5.00;4.00;;;;;24.06;34.66;103543.84;5057682;28;46545;-82
2023/02/06 12:38:06;;;;;;;;;5.33;5.33;;;;;24.07;34.90;103533.84;5060233;28;45540;-83
2023/02/06 12:40:44;;;;;;;;;5.00;5.00;;;;;24.12;34.75;103547.13;5057172;28;45507;-82
2023/02/06 12:43:13;;;;;;;;;6.00;5.00;;;;;24.12;35.05;103545.31;5071876;27;45413;-83
2023/02/06 12:45:58;;;;;;;;;5.00;3.67;;;;;24.12;34.77;103548.03;5063433;28;45432;-83
2023/02/06 12:48:46;;;;;;;;;3.33;3.33;;;;;24.14;35.20;103542.47;5071983;28;45514;-82
2023/02/06 12:51:20;;;;;;;;;6.00;6.00;;;;;24.14;35.44;103539.75;5064430;27;45435;-73
2023/02/06 12:53:53;;;;;;;;;4.67;4.00;;;;;24.15;35.32;103531.50;5070501;27;45855;-74
2023/02/06 12:56:40;;;;;;;;;1.67;1.00;;;;;24.15;35.41;103536.09;5053960;28;47657;-75
2023/02/06 12:59:08;;;;;;;;;4.00;4.00;;;;;24.15;35.46;103531.50;5054062;28;45523;-76
2023/02/06 13:01:50;;;;;;;;;3.67;3.67;;;;;24.17;36.03;103523.28;5075693;28;45401;-75
2023/02/06 13:04:23;;;;;;;;;3.00;3.00;;;;;24.19;35.70;103511.34;5055741;27;45643;-75
2023/02/06 13:07:10;;;;;;;;;3.67;3.00;;;;;24.23;35.96;103514.69;5075072;28;45902;-75
2023/02/06 13:09:39;;;;;;;;;4.00;4.00;;;;;24.27;36.63;103509.94;5056490;28;45380;-75
2023/02/06 13:12:06;;;;;;;;;6.00;4.67;;;;;24.31;36.20;103504.19;5068007;27;45514;-75
2023/02/06 13:14:34;;;;;;;;;3.67;3.67;;;;;24.37;36.44;103499.31;5056947;27;45570;-74
2023/02/06 13:17:10;;;;;;;;;4.67;3.00;;;;;24.42;36.51;103503.44;5073287;28;46376;-76
2023/02/06 13:19:35;;;;;;;;;3.00;3.00;;;;;24.49;36.33;103506.59;5074095;27;45557;-77
2023/02/06 13:22:06;;;;;;;;;3.00;3.00;;;;;24.55;36.53;103494.41;5069037;28;45418;-77
2023/02/06 13:24:31;;;;;;;;;6.33;3.33;;;;;24.61;36.58;103483.13;5059680;28;45408;-83
2023/02/06 13:27:09;;;;;;;;;3.67;3.67;;;;;24.71;36.45;103478.78;5071922;27;46232;-75
2023/02/06 13:29:43;;;;;;;;;3.67;3.00;;;;;24.80;36.58;103485.38;5064642;27;45552;-77
2023/02/06 13:32:11;;;;;;;;;3.33;3.00;;;;;24.88;36.38;103470.44;5064950;28;46984;-77
2023/02/06 13:35:14;;;;;;;;;4.33;4.33;;;;;24.98;36.51;103471.47;5063961;27;45443;-77
2023/02/06 13:37:46;;;;;;;;;3.00;3.00;;;;;25.09;36.52;103454.41;5056224;27;45471;-74
2023/02/06 13:40:34;;;;;;;;;6.33;3.33;;;;;25.16;36.70;103450.22;5075098;28;45336;-74
2023/02/06 13:43:16;;;;;;;;;4.33;4.00;;;;;25.21;36.23;103449.88;5067590;28;45404;-75
2023/02/06 13:45:47;;;;;;;;;5.33;4.67;;;;;25.23;36.22;103442.47;5067800;28;45491;-75
2023/02/06 13:48:37;;;;;;;;;5.00;4.33;;;;;25.23;35.24;103442.47;5057118;27;46309;-74
2023/02/06 13:51:21;;;;;;;;;5.00;4.67;;;;;25.25;35.38;103438.66;5048052;28;45753;-80
2023/02/06 13:54:23;;;;;;;;;6.33;5.33;;;;;25.24;35.59;103441.50;5065226;28;45427;-77
2023/02/06 13:57:30;;;;;;;;;4.67;4.33;;;;;25.24;35.72;103427.91;5050315;28;45531;-76
2023/02/06 14:00:10;;;;;;;;;4.00;4.00;;;;;25.29;35.45;103433.84;5046039;27;46377;-76
2023/02/06 14:02:38;;;;;;;;;6.33;6.33;;;;;25.30;35.51;103424.72;5068892;28;45455;-77
2023/02/06 14:05:09;;;;;;;;;4.00;4.00;;;;;25.31;34.91;103422.88;5075874;27;45778;-77
2023/02/06 14:07:44;;;;;;;;;4.00;3.67;;;;;25.30;34.88;103413.00;5050487;28;45487;-79
2023/02/06 14:10:27;;;;;;;;;5.00;4.00;;;;;25.29;35.00;103403.13;5054352;28;46419;-78
2023/02/06 14:12:55;;;;;;;;;5.00;3.33;;;;;25.26;35.17;103404.22;5073176;28;45500;-80
2023/02/06 14:15:20;;;;;;;;;5.33;2.33;;;;;25.24;34.95;103403.44;5075220;27;45483;-79
2023/02/06 14:18:05;;;;;;;;;4.00;3.33;;;;;25.22;34.83;103400.84;5074339;28;45485;-75
2023/02/06 14:20:48;;;;;;;;;6.67;3.00;;;;;25.20;35.07;103397.38;5064407;28;46439;-76
2023/02/06 14:23:36;;;;;;;;;3.67;3.33;;;;;25.18;35.01;103385.75;5075015;27;45564;-74
2023/02/06 14:26:29;;;;;;;;;3.67;2.00;;;;;25.16;35.35;103392.28;5077001;27;45423;-76
2023/02/06 14:29:06;;;;;;;;;6.00;4.33;;;;;25.12;35.32;103387.09;5071954;27;45873;-76
2023/02/06 14:31:49;;;;;;;;;3.67;3.67;;;;;25.10;35.47;103388.19;5067005;27;46054;-74
2023/02/06 14:34:57;;;;;;;;;5.33;3.33;;;;;25.07;35.87;103386.56;5038714;28;45379;-90
2023/02/06 14:37:41;;;;;;;;;3.67;3.67;;;;;25.00;35.99;103383.44;5042270;28;45389;-77
2023/02/06 14:40:18;;;;;;;;;8.33;5.00;;;;;24.92;35.68;103375.00;5068701;27;45445;-75
2023/02/06 14:42:45;;;;;;;;;1.67;1.00;;;;;24.85;36.07;103374.56;5066928;27;45677;-76
2023/02/06 14:45:24;;;;;;;;;5.33;5.33;;;;;24.82;36.11;103376.63;5063481;27;45436;-88
2023/02/06 14:47:51;;;;;;;;;5.00;4.33;;;;;24.77;36.02;103362.53;5096829;27;45310;-74
2023/02/06 14:50:20;;;;;;;;;8.00;3.67;;;;;24.72;35.85;103369.16;5057996;27;45502;-75
2023/02/06 14:52:52;;;;;;;;;5.00;4.00;;;;;24.69;35.96;103363.94;5072491;27;45526;-73
2023/02/06 14:55:35;;;;;;;;;6.67;5.00;;;;;24.71;36.08;103363.84;5067844;28;45509;-76
2023/02/06 14:58:02;;;;;;;;;5.67;4.33;;;;;24.71;36.10;103366.56;5052800;28;45579;-76
2023/02/06 15:00:29;;;;;;;;;3.33;3.33;;;;;24.71;36.29;103362.00;5074555;27;45414;-74
2023/02/06 15:03:02;;;;;;;;;3.00;2.33;;;;;24.72;36.17;103360.13;5059472;27;46465;-82
2023/02/06 15:05:30;;;;;;;;;5.33;4.33;;;;;24.76;36.12;103371.66;5054802;28;45356;-75
2023/02/06 15:08:01;;;;;;;;;6.00;3.00;;;;;24.78;36.63;103366.97;5062864;27;45419;-76
2023/02/06 15:10:30;;;;;;;;;4.00;4.00;;;;;24.80;36.76;103368.59;5074976;28;45900;-74
2023/02/06 15:12:55;;;;;;;;;5.67;2.67;;;;;24.82;36.06;103380.22;5072584;27;45506;-81
2023/02/06 15:15:27;;;;;;;;;6.00;4.33;;;;;24.82;36.07;103371.19;5078262;27;45587;-74
2023/02/06 15:18:00;;;;;;;;;3.67;3.00;;;;;24.82;36.13;103373.91;5068642;27;45407;-87
2023/02/06 15:20:50;;;;;;;;;3.33;3.33;;;;;24.80;36.31;103365.88;5079525;27;45395;-85
2023/02/06 15:23:37;;;;;;;;;4.00;3.00;;;;;24.78;36.38;103372.41;5082497;27;46389;-82
2023/02/06 15:26:27;;;;;;;;;5.67;4.00;;;;;24.76;36.39;103369.78;5074949;28;45327;-89
2023/02/06 15:28:58;;;;;;;;;4.33;3.00;;;;;24.73;36.46;103370.88;5069522;28;45841;-84
2023/02/06 15:31:23;;;;;;;;;5.00;3.00;;;;;24.74;36.44;103369.06;5062406;27;45424;-84
2023/02/06 15:33:53;;;;;;;;;3.00;3.00;;;;;24.73;36.57;103360.03;5076879;27;48198;-81
2023/02/06 15:36:35;;;;;;;;;8.00;4.00;;;;;24.72;36.49;103352.88;5054458;28;45536;-79
2023/02/06 15:39:09;;;;;;;;;3.00;3.00;;;;;24.76;36.67;103355.38;5063583;28;45487;-87
2023/02/06 15:41:35;;;;;;;;;4.00;3.33;;;;;24.78;36.68;103348.84;5073914;28;45491;-76
2023/02/06 15:44:08;;;;;;;;;4.00;3.67;;;;;24.85;36.93;103352.84;5074429;27;45422;-75
2023/02/06 15:46:36;;;;;;;;;4.67;2.00;;;;;24.92;36.76;103346.94;5082638;27;45348;-74
2023/02/06 15:49:02;;;;;;;;;3.33;1.67;;;;;24.99;36.70;103350.94;5065569;27;45482;-76
2023/02/06 15:51:53;;;;;;;;;4.33;2.00;;;;;25.06;36.49;103345.94;5054663;28;45456;-78
2023/02/06 15:54:21;;;;;;;;;3.00;3.00;;;;;25.09;36.66;103351.97;5050806;28;48515;-79
2023/02/06 15:56:50;;;;;;;;;4.00;2.67;;;;;25.14;36.58;103357.09;5063149;27;45525;-85
2023/02/06 15:59:23;;;;;;;;;6.00;3.00;;;;;25.16;36.78;103355.09;5066906;28;45388;-80
2023/02/06 16:01:49;;;;;;;;;3.00;3.00;;;;;25.19;36.85;103354.00;5078190;28;45443;-81
2023/02/06 16:04:22;;;;;;;;;4.33;4.33;;;;;25.20;36.41;103356.63;5077617;27;46806;-74
2023/02/06 16:07:01;;;;;;;;;3.00;2.00;;;;;25.21;36.86;103352.91;5077373;27;45502;-74
2023/02/06 16:09:26;;;;;;;;;4.00;3.00;;;;;25.22;36.39;103353.78;5077447;28;45418;-73
2023/02/06 16:11:55;;;;;;;;;3.00;2.00;;;;;25.23;36.48;103344.63;5075968;27;45425;-73
2023/02/06 16:14:41;;;;;;;;;4.33;2.33;;;;;25.27;36.78;103344.28;5075099;28;45265;-73
2023/02/06 16:17:09;;;;;;;;;5.33;4.33;;;;;25.32;37.02;103343.06;5076375;27;45439;-73
2023/02/06 16:19:51;;;;;;;;;1.67;1.67;;;;;25.35;36.75;103354.59;5082535;27;45399;-73
2023/02/06 16:22:26;;;;;;;;;2.00;2.00;;;;;25.37;36.36;103358.03;5085488;27;45527;-74
2023/02/06 16:24:54;;;;;;;;;4.33;4.33;;;;;25.38;36.72;103359.75;5076190;27;45523;-73
2023/02/06 16:27:20;;;;;;;;;3.00;2.33;;;;;25.41;36.17;103353.22;5083763;27;45372;-75
2023/02/06 16:29:49;;;;;;;;;5.33;4.00;;;;;25.43;36.84;103359.44;5060734;28;45575;-73
2023/02/06 16:32:20;;;;;;;;;2.33;2.33;;;;;25.46;36.17;103353.72;5062496;27;45441;-76
2023/02/06 16:34:46;;;;;;;;;8.67;6.67;;;;;25.47;35.30;103352.75;5057137;28;45502;-72
2023/02/06 17:34:07;;;;;;;;;4.67;4.67;;;;;20.49;37.23;103394.81;5114907;27;45623;-71
2023/02/06 17:36:38;;;;;;;;;9.00;6.00;;;;;20.51;37.67;103401.00;5099845;27;45566;-72
2023/02/06 17:39:04;;;;;;;;;4.67;4.33;;;;;20.61;38.42;103389.69;5098817;27;45735;-73
2023/02/06 17:41:30;;;;;;;;;10.00;7.00;;;;;20.79;37.49;103398.59;5117058;27;45591;-71
2023/02/06 17:43:55;;;;;;;;;8.33;6.00;;;;;20.99;37.39;103405.59;5100938;27;46415;-70
2023/02/06 17:46:21;;;;;;;;;6.00;5.67;;;;;21.22;36.89;103403.44;5104371;27;45465;-72
2023/02/06 17:48:47;;;;;;;;;7.67;5.00;;;;;21.44;37.19;103411.16;5114234;27;45494;-72
2023/02/06 17:51:12;;;;;;;;;6.67;3.67;;;;;21.67;37.65;103399.94;5121359;27;45496;-79
2023/02/06 17:53:37;;;;;;;;;7.00;5.00;;;;;21.91;37.26;103407.56;5108540;27;46144;-76
2023/02/06 17:56:05;;;;;;;;;5.00;5.00;;;;;22.15;36.97;103407.88;5106017;27;47277;-74
2023/02/06 17:58:30;;;;;;;;;8.00;5.67;;;;;22.37;37.07;103401.16;5112062;27;45449;-73
2023/02/06 18:00:56;;;;;;;;;4.33;4.33;;;;;22.58;37.04;103403.50;5102009;27;45418;-72
2023/02/06 18:03:21;;;;;;;;;5.33;5.00;;;;;22.77;36.68;103408.63;5130358;27;45805;-75
2023/02/06 18:05:55;;;;;;;;;7.00;5.33;;;;;22.95;36.83;103400.25;5124655;27;45358;-76
2023/02/06 18:08:21;;;;;;;;;6.00;5.00;;;;;23.12;36.41;103396.41;5104100;27;45445;-76
2023/02/06 18:10:46;;;;;;;;;5.00;4.33;;;;;23.27;36.41;103408.97;5112303;27;45361;-76
2023/02/06 18:13:11;;;;;;;;;5.00;5.00;;;;;23.41;35.69;103399.06;5105608;27;45415;-75
2023/02/06 18:15:37;;;;;;;;;5.00;3.33;;;;;23.51;34.99;103399.31;5128435;27;45562;-75
2023/02/06 18:18:03;;;;;;;;;5.67;5.67;;;;;23.54;34.86;103397.25;5117402;27;45444;-75
2023/02/06 18:20:29;;;;;;;;;5.33;3.00;;;;;23.59;34.98;103401.50;5101517;27;45541;-75
2023/02/06 18:22:54;;;;;;;;;7.67;5.00;;;;;23.61;34.91;103397.72;5096478;27;46299;-75
2023/02/06 18:25:20;;;;;;;;;4.67;4.33;;;;;23.64;34.46;103394.81;5092047;27;45506;-75
2023/02/06 18:27:45;;;;;;;;;3.00;3.00;;;;;23.67;34.77;103391.84;5090421;27;45435;-75
2023/02/06 18:30:11;;;;;;;;;3.00;3.00;;;;;23.69;34.56;103381.78;5096009;27;45414;-75
2023/02/06 18:32:37;;;;;;;;;5.00;4.00;;;;;23.69;34.40;103379.09;5108700;27;46381;-75
2023/02/06 18:35:04;;;;;;;;;5.00;5.00;;;;;23.72;34.40;103391.56;5104082;27;45422;-75
2023/02/06 18:37:30;;;;;;;;;6.67;5.00;;;;;23.73;34.69;103387.88;5108282;27;45343;-75
2023/02/06 18:39:55;;;;;;;;;5.67;5.67;;;;;23.75;34.47;103383.19;5110072;27;45385;-73
2023/02/06 18:45:05;;;;;;;;;4.00;4.00;;;;;23.84;34.75;103380.81;5083109;27;45435;-75
2023/02/06 18:47:30;;;;;;;;;5.33;4.00;;;;;23.89;34.91;103386.78;5096740;27;45593;-74
2023/02/06 18:49:56;;;;;;;;;6.00;4.00;;;;;23.95;35.04;103381.81;5102904;27;45564;-75
2023/02/06 18:52:21;;;;;;;;;3.00;3.00;;;;;24.02;34.68;103373.22;5096979;27;46268;-72
2023/02/06 18:54:47;;;;;;;;;7.33;4.00;;;;;24.09;35.02;103371.88;5088367;27;45379;-75
2023/02/06 18:57:13;;;;;;;;;6.67;4.33;;;;;24.14;34.95;103368.81;5097369;27;45307;-74
2023/02/06 18:59:38;;;;;;;;;5.00;5.00;;;;;24.20;35.33;103371.97;5096394;27;45573;-74
2023/02/06 19:02:03;;;;;;;;;2.33;2.33;;;;;24.26;34.85;103362.53;5096376;27;46352;-74
2023/02/06 19:04:29;;;;;;;;;2.33;2.33;;;;;24.31;34.77;103367.59;5090811;27;45300;-74
2023/02/06 19:06:54;;;;;;;;;2.00;2.00;;;;;24.35;34.87;103360.97;5096384;27;45350;-74
2023/02/06 19:09:20;;;;;;;;;2.33;2.33;;;;;24.37;34.44;103356.31;5088786;27;45447;-78
2023/02/06 19:11:46;;;;;;;;;5.00;5.00;;;;;24.41;34.74;103354.25;5096469;27;45581;-81
2023/02/06 19:14:15;;;;;;;;;2.00;2.00;;;;;24.42;34.75;103361.41;5095792;27;45507;-80
2023/02/06 19:16:43;;;;;;;;;5.33;5.00;;;;;24.43;34.93;103357.72;5090775;27;45548;-80
2023/02/06 19:19:10;;;;;;;;;5.67;3.67;;;;;24.45;34.91;103364.75;5076443;27;45561;-77
2023/02/06 19:21:37;;;;;;;;;2.33;2.00;;;;;24.45;35.03;103364.75;5104096;27;46372;-78
2023/02/06 19:24:02;;;;;;;;;3.00;3.00;;;;;24.47;35.42;103364.66;5084748;27;45777;-77
2023/02/06 19:26:28;;;;;;;;;3.33;2.67;;;;;24.49;34.85;103362.72;5093310;27;45413;-78
2023/02/06 19:28:55;;;;;;;;;3.33;3.33;;;;;24.51;34.89;103351.72;5086171;27;45413;-75
2023/02/06 19:31:23;;;;;;;;;0.00;0.00;;;;;24.52;34.60;103351.59;5086545;27;45378;-75
2023/02/06 19:33:55;;;;;;;;;4.00;4.00;;;;;24.51;33.70;103349.88;5086302;27;45508;-74
2023/02/06 19:36:22;;;;;;;;;4.00;4.00;;;;;24.46;33.55;103350.22;5088671;27;45449;-74
2023/02/06 19:38:51;;;;;;;;;3.33;2.00;;;;;24.39;33.96;103348.06;5093805;27;45552;-75
2023/02/06 19:41:19;;;;;;;;;5.00;3.67;;;;;24.32;33.84;103353.09;5086940;27;45477;-74
2023/02/06 19:43:47;;;;;;;;;3.00;3.00;;;;;24.25;34.09;103341.78;5104255;27;45460;-74
2023/02/06 19:46:14;;;;;;;;;6.00;2.00;;;;;24.22;34.04;103344.72;5094083;27;45521;-74
2023/02/06 19:48:42;;;;;;;;;4.00;4.00;;;;;24.17;33.74;103342.34;5091599;27;45556;-74
2023/02/06 19:51:10;;;;;;;;;4.33;4.33;;;;;24.13;33.84;103346.25;5072914;27;45594;-74
2023/02/06 19:53:35;;;;;;;;;5.33;5.33;;;;;24.09;34.02;103347.44;5091508;27;45572;-74
2023/02/06 19:56:04;;;;;;;;;4.00;4.00;;;;;24.06;34.03;103344.91;5094308;27;45776;-72
2023/02/06 19:58:30;;;;;;;;;5.00;4.00;;;;;24.03;33.79;103337.00;5095563;27;45532;-73
2023/02/06 20:01:12;;;;;;;;;4.00;3.33;;;;;24.03;34.07;103339.72;5079241;27;46272;-72
2023/02/06 20:03:37;;;;;;;;;7.00;4.00;;;;;24.01;33.99;103331.69;5092245;27;45834;-73
2023/02/06 20:06:05;;;;;;;;;6.67;5.67;;;;;24.01;34.15;103325.38;5075649;27;45358;-73
2023/02/06 20:08:31;;;;;;;;;6.33;5.00;;;;;23.99;34.09;103321.94;5084099;27;45332;-72
2023/02/06 20:10:56;;;;;;;;;4.00;4.00;;;;;23.98;34.13;103331.06;5093593;27;45495;-73
2023/02/06 22:16:01;;;;;;;;;3.75;3.75;;;;;18.49;42.94;103246.84;5120166;27;45424;-73
2023/02/06 22:18:27;;;;;;;;;5.00;5.00;;;;;18.61;43.50;103242.69;5114244;27;45496;-73